Avila Beach, California
Current Conditions -  °F | °C
As of 9:56 AM on Monday 24 Nov 2014 (Local Time) from KSBP Reporting Station
Clear Clear  
Wind Chill: 64°   Ceiling: Unl
Heat Index: 64°   Visibility: 10mi
Dew Point: 39°   Wind: 16mph
Humidity: 40%   Direction: 80°E
Pressure: 30.33"   Gusts: NA
Location:  35.18°N, 120.73°W
Report Text: KSBP 241756Z 08014KT 10SM CLR 18/04 A3033 RMK AO2 SLP268 T01780039 10178 20067 53020
Loading
Personal Weather Stations






























Interactive Weather Map New forecast layout! Learn more

10-Day Weather Forecast

Advertisements
Track Severe Weather on mobile